sensor_id;sensor_type;location;lat;lon;timestamp;P1;durP1;ratioP1;P2;durP2;ratioP2
68993;SDS011;56054;50.968;5.816;2023-07-08T00:03:01;7.53;;;4.20;;
68993;SDS011;56054;50.968;5.816;2023-07-08T00:06:11;10.88;;;4.47;;
68993;SDS011;56054;50.968;5.816;2023-07-08T00:09:27;8.88;;;4.95;;
68993;SDS011;56054;50.968;5.816;2023-07-08T00:12:34;7.88;;;4.50;;
68993;SDS011;56054;50.968;5.816;2023-07-08T00:15:41;10.07;;;4.10;;
68993;SDS011;56054;50.968;5.816;2023-07-08T00:18:48;8.45;;;4.22;;
68993;SDS011;56054;50.968;5.816;2023-07-08T00:21:55;8.45;;;4.20;;
68993;SDS011;56054;50.968;5.816;2023-07-08T00:25:02;7.50;;;3.97;;
68993;SDS011;56054;50.968;5.816;2023-07-08T00:28:09;10.82;;;4.68;;
68993;SDS011;56054;50.968;5.816;2023-07-08T00:31:19;7.28;;;4.20;;
68993;SDS011;56054;50.968;5.816;2023-07-08T00:34:26;5.55;;;3.65;;
68993;SDS011;56054;50.968;5.816;2023-07-08T00:37:33;7.63;;;4.30;;
68993;SDS011;56054;50.968;5.816;2023-07-08T00:40:47;14.35;;;4.20;;
68993;SDS011;56054;50.968;5.816;2023-07-08T00:43:56;9.52;;;4.25;;
68993;SDS011;56054;50.968;5.816;2023-07-08T00:47:07;8.10;;;3.63;;
68993;SDS011;56054;50.968;5.816;2023-07-08T00:50:16;8.80;;;4.38;;
68993;SDS011;56054;50.968;5.816;2023-07-08T00:53:30;8.18;;;4.13;;
68993;SDS011;56054;50.968;5.816;2023-07-08T01:00:00;9.15;;;5.05;;
68993;SDS011;56054;50.968;5.816;2023-07-08T01:03:07;7.03;;;4.55;;
68993;SDS011;56054;50.968;5.816;2023-07-08T01:06:14;7.28;;;4.10;;
68993;SDS011;56054;50.968;5.816;2023-07-08T01:09:22;7.88;;;4.32;;
68993;SDS011;56054;50.968;5.816;2023-07-08T01:12:37;8.98;;;4.25;;
68993;SDS011;56054;50.968;5.816;2023-07-08T01:15:49;8.40;;;4.10;;
68993;SDS011;56054;50.968;5.816;2023-07-08T01:18:56;7.68;;;3.72;;
68993;SDS011;56054;50.968;5.816;2023-07-08T01:22:04;9.90;;;4.13;;
68993;SDS011;56054;50.968;5.816;2023-07-08T01:25:12;10.27;;;5.03;;
68993;SDS011;56054;50.968;5.816;2023-07-08T01:28:20;6.97;;;4.15;;
68993;SDS011;56054;50.968;5.816;2023-07-08T01:31:28;7.72;;;4.57;;
68993;SDS011;56054;50.968;5.816;2023-07-08T01:34:36;7.57;;;4.28;;
68993;SDS011;56054;50.968;5.816;2023-07-08T01:37:55;8.32;;;4.45;;
68993;SDS011;56054;50.968;5.816;2023-07-08T01:41:05;8.98;;;4.40;;
68993;SDS011;56054;50.968;5.816;2023-07-08T01:44:31;7.50;;;3.95;;
68993;SDS011;56054;50.968;5.816;2023-07-08T01:47:42;7.57;;;4.70;;
68993;SDS011;56054;50.968;5.816;2023-07-08T01:54:09;8.13;;;4.50;;
68993;SDS011;56054;50.968;5.816;2023-07-08T01:57:16;11.73;;;5.05;;
68993;SDS011;56054;50.968;5.816;2023-07-08T02:00:23;10.48;;;4.80;;
68993;SDS011;56054;50.968;5.816;2023-07-08T02:03:30;6.60;;;3.80;;
68993;SDS011;56054;50.968;5.816;2023-07-08T02:06:37;9.88;;;4.45;;
68993;SDS011;56054;50.968;5.816;2023-07-08T02:09:44;10.32;;;3.67;;
68993;SDS011;56054;50.968;5.816;2023-07-08T02:12:51;9.05;;;4.45;;
68993;SDS011;56054;50.968;5.816;2023-07-08T02:15:58;8.57;;;4.50;;
68993;SDS011;56054;50.968;5.816;2023-07-08T02:19:05;7.93;;;4.25;;
68993;SDS011;56054;50.968;5.816;2023-07-08T02:22:12;8.02;;;4.88;;
68993;SDS011;56054;50.968;5.816;2023-07-08T02:25:19;13.10;;;4.88;;
68993;SDS011;56054;50.968;5.816;2023-07-08T02:28:26;10.02;;;4.70;;
68993;SDS011;56054;50.968;5.816;2023-07-08T02:31:33;8.35;;;4.88;;
68993;SDS011;56054;50.968;5.816;2023-07-08T02:34:41;9.88;;;4.78;;
68993;SDS011;56054;50.968;5.816;2023-07-08T02:37:48;9.20;;;6.13;;
68993;SDS011;56054;50.968;5.816;2023-07-08T02:40:55;9.02;;;4.97;;
68993;SDS011;56054;50.968;5.816;2023-07-08T02:44:03;9.55;;;5.05;;
68993;SDS011;56054;50.968;5.816;2023-07-08T02:47:10;9.57;;;5.18;;
68993;SDS011;56054;50.968;5.816;2023-07-08T02:50:17;10.43;;;4.88;;
68993;SDS011;56054;50.968;5.816;2023-07-08T02:53:24;11.00;;;5.68;;
68993;SDS011;56054;50.968;5.816;2023-07-08T02:56:31;10.85;;;5.60;;
68993;SDS011;56054;50.968;5.816;2023-07-08T02:59:38;9.18;;;5.15;;
68993;SDS011;56054;50.968;5.816;2023-07-08T03:02:45;10.27;;;5.75;;
68993;SDS011;56054;50.968;5.816;2023-07-08T03:05:58;9.20;;;5.07;;
68993;SDS011;56054;50.968;5.816;2023-07-08T03:09:07;15.30;;;5.47;;
68993;SDS011;56054;50.968;5.816;2023-07-08T03:12:14;14.52;;;5.95;;
68993;SDS011;56054;50.968;5.816;2023-07-08T03:15:22;13.18;;;5.72;;
68993;SDS011;56054;50.968;5.816;2023-07-08T03:18:29;11.82;;;5.80;;
68993;SDS011;56054;50.968;5.816;2023-07-08T03:21:36;10.48;;;5.63;;
68993;SDS011;56054;50.968;5.816;2023-07-08T03:24:43;7.68;;;4.88;;
68993;SDS011;56054;50.968;5.816;2023-07-08T03:27:53;10.13;;;5.65;;
68993;SDS011;56054;50.968;5.816;2023-07-08T03:31:00;11.00;;;5.05;;
68993;SDS011;56054;50.968;5.816;2023-07-08T03:34:09;10.45;;;5.40;;
68993;SDS011;56054;50.968;5.816;2023-07-08T03:37:22;9.40;;;5.57;;
68993;SDS011;56054;50.968;5.816;2023-07-08T03:40:30;10.95;;;5.72;;
68993;SDS011;56054;50.968;5.816;2023-07-08T03:43:37;11.68;;;5.70;;
68993;SDS011;56054;50.968;5.816;2023-07-08T03:46:46;11.75;;;5.47;;
68993;SDS011;56054;50.968;5.816;2023-07-08T03:49:54;8.23;;;5.18;;
68993;SDS011;56054;50.968;5.816;2023-07-08T03:53:01;13.02;;;5.97;;
68993;SDS011;56054;50.968;5.816;2023-07-08T03:56:10;9.68;;;5.38;;
68993;SDS011;56054;50.968;5.816;2023-07-08T03:59:19;10.05;;;4.45;;
68993;SDS011;56054;50.968;5.816;2023-07-08T04:02:28;9.13;;;5.15;;
68993;SDS011;56054;50.968;5.816;2023-07-08T04:05:35;10.75;;;5.35;;
68993;SDS011;56054;50.968;5.816;2023-07-08T04:08:42;10.02;;;5.43;;
68993;SDS011;56054;50.968;5.816;2023-07-08T04:11:49;10.50;;;4.78;;
68993;SDS011;56054;50.968;5.816;2023-07-08T04:14:56;10.02;;;5.72;;
68993;SDS011;56054;50.968;5.816;2023-07-08T04:18:03;13.98;;;5.85;;
68993;SDS011;56054;50.968;5.816;2023-07-08T04:21:10;9.77;;;5.43;;
68993;SDS011;56054;50.968;5.816;2023-07-08T04:24:17;10.30;;;5.63;;
68993;SDS011;56054;50.968;5.816;2023-07-08T04:27:24;12.02;;;6.15;;
68993;SDS011;56054;50.968;5.816;2023-07-08T04:30:31;16.95;;;5.93;;
68993;SDS011;56054;50.968;5.816;2023-07-08T04:33:38;15.05;;;5.88;;
68993;SDS011;56054;50.968;5.816;2023-07-08T04:36:45;13.65;;;5.40;;
68993;SDS011;56054;50.968;5.816;2023-07-08T04:39:59;14.18;;;6.50;;
68993;SDS011;56054;50.968;5.816;2023-07-08T04:43:06;11.20;;;6.03;;
68993;SDS011;56054;50.968;5.816;2023-07-08T04:46:17;11.15;;;5.85;;
68993;SDS011;56054;50.968;5.816;2023-07-08T04:49:37;13.35;;;6.32;;
68993;SDS011;56054;50.968;5.816;2023-07-08T04:52:44;10.25;;;5.50;;
68993;SDS011;56054;50.968;5.816;2023-07-08T04:55:52;11.40;;;5.82;;
68993;SDS011;56054;50.968;5.816;2023-07-08T04:59:02;16.70;;;7.28;;
68993;SDS011;56054;50.968;5.816;2023-07-08T05:02:09;12.13;;;6.43;;
68993;SDS011;56054;50.968;5.816;2023-07-08T05:05:16;12.82;;;6.70;;
68993;SDS011;56054;50.968;5.816;2023-07-08T05:08:23;14.45;;;6.25;;
68993;SDS011;56054;50.968;5.816;2023-07-08T05:11:30;15.73;;;7.35;;
68993;SDS011;56054;50.968;5.816;2023-07-08T05:14:37;15.00;;;6.65;;
68993;SDS011;56054;50.968;5.816;2023-07-08T05:17:44;17.60;;;5.55;;
68993;SDS011;56054;50.968;5.816;2023-07-08T05:20:51;14.60;;;6.18;;
68993;SDS011;56054;50.968;5.816;2023-07-08T05:24:00;14.70;;;6.15;;
68993;SDS011;56054;50.968;5.816;2023-07-08T05:27:08;12.07;;;5.90;;
68993;SDS011;56054;50.968;5.816;2023-07-08T05:30:16;12.27;;;5.95;;
68993;SDS011;56054;50.968;5.816;2023-07-08T05:33:25;14.15;;;6.15;;
68993;SDS011;56054;50.968;5.816;2023-07-08T05:36:33;11.77;;;6.40;;
68993;SDS011;56054;50.968;5.816;2023-07-08T05:39:40;14.90;;;6.28;;
68993;SDS011;56054;50.968;5.816;2023-07-08T05:42:47;13.55;;;6.03;;
68993;SDS011;56054;50.968;5.816;2023-07-08T05:46:00;17.20;;;6.60;;
68993;SDS011;56054;50.968;5.816;2023-07-08T05:49:08;17.38;;;6.05;;
68993;SDS011;56054;50.968;5.816;2023-07-08T05:52:15;10.80;;;6.18;;
68993;SDS011;56054;50.968;5.816;2023-07-08T05:55:22;12.80;;;6.65;;
68993;SDS011;56054;50.968;5.816;2023-07-08T05:58:29;14.48;;;6.47;;
68993;SDS011;56054;50.968;5.816;2023-07-08T06:01:36;11.88;;;6.68;;
68993;SDS011;56054;50.968;5.816;2023-07-08T06:04:43;12.70;;;6.53;;
68993;SDS011;56054;50.968;5.816;2023-07-08T06:07:50;12.35;;;6.18;;
68993;SDS011;56054;50.968;5.816;2023-07-08T06:10:57;12.80;;;7.32;;
68993;SDS011;56054;50.968;5.816;2023-07-08T06:14:04;14.35;;;7.15;;
68993;SDS011;56054;50.968;5.816;2023-07-08T06:17:11;14.52;;;7.22;;
68993;SDS011;56054;50.968;5.816;2023-07-08T06:20:18;16.00;;;6.97;;
68993;SDS011;56054;50.968;5.816;2023-07-08T06:23:25;13.35;;;7.07;;
68993;SDS011;56054;50.968;5.816;2023-07-08T06:26:32;12.07;;;7.28;;
68993;SDS011;56054;50.968;5.816;2023-07-08T06:29:39;14.38;;;6.30;;
68993;SDS011;56054;50.968;5.816;2023-07-08T06:32:46;14.15;;;6.90;;
68993;SDS011;56054;50.968;5.816;2023-07-08T06:35:53;12.32;;;6.60;;
68993;SDS011;56054;50.968;5.816;2023-07-08T06:39:00;19.15;;;6.93;;
68993;SDS011;56054;50.968;5.816;2023-07-08T06:42:07;14.65;;;6.95;;
68993;SDS011;56054;50.968;5.816;2023-07-08T06:45:20;15.10;;;7.00;;
68993;SDS011;56054;50.968;5.816;2023-07-08T06:48:28;17.85;;;6.78;;
68993;SDS011;56054;50.968;5.816;2023-07-08T06:51:35;12.00;;;6.78;;
68993;SDS011;56054;50.968;5.816;2023-07-08T06:54:42;21.08;;;7.93;;
68993;SDS011;56054;50.968;5.816;2023-07-08T06:57:49;12.15;;;6.57;;
68993;SDS011;56054;50.968;5.816;2023-07-08T07:00:56;18.20;;;6.35;;
68993;SDS011;56054;50.968;5.816;2023-07-08T07:04:03;14.85;;;6.78;;
68993;SDS011;56054;50.968;5.816;2023-07-08T07:07:10;16.23;;;7.45;;
68993;SDS011;56054;50.968;5.816;2023-07-08T07:10:17;15.18;;;7.40;;
68993;SDS011;56054;50.968;5.816;2023-07-08T07:13:24;15.38;;;6.82;;
68993;SDS011;56054;50.968;5.816;2023-07-08T07:16:31;10.88;;;6.43;;
68993;SDS011;56054;50.968;5.816;2023-07-08T07:19:38;13.18;;;7.28;;
68993;SDS011;56054;50.968;5.816;2023-07-08T07:22:46;12.43;;;6.63;;
68993;SDS011;56054;50.968;5.816;2023-07-08T07:25:53;11.65;;;6.97;;
68993;SDS011;56054;50.968;5.816;2023-07-08T07:29:00;14.60;;;7.47;;
68993;SDS011;56054;50.968;5.816;2023-07-08T07:32:07;14.98;;;7.45;;
68993;SDS011;56054;50.968;5.816;2023-07-08T07:35:15;14.70;;;6.18;;
68993;SDS011;56054;50.968;5.816;2023-07-08T07:38:22;13.80;;;6.72;;
68993;SDS011;56054;50.968;5.816;2023-07-08T07:41:29;14.55;;;7.13;;
68993;SDS011;56054;50.968;5.816;2023-07-08T07:44:36;13.68;;;7.03;;
68993;SDS011;56054;50.968;5.816;2023-07-08T07:47:43;9.68;;;5.97;;
68993;SDS011;56054;50.968;5.816;2023-07-08T07:50:50;21.67;;;7.05;;
68993;SDS011;56054;50.968;5.816;2023-07-08T07:53:57;11.18;;;7.00;;
68993;SDS011;56054;50.968;5.816;2023-07-08T07:57:04;10.43;;;6.93;;
68993;SDS011;56054;50.968;5.816;2023-07-08T08:00:12;10.05;;;6.28;;
68993;SDS011;56054;50.968;5.816;2023-07-08T08:03:26;11.52;;;7.22;;
68993;SDS011;56054;50.968;5.816;2023-07-08T08:06:33;12.82;;;5.57;;
68993;SDS011;56054;50.968;5.816;2023-07-08T08:09:40;13.00;;;7.85;;
68993;SDS011;56054;50.968;5.816;2023-07-08T08:12:47;10.40;;;6.05;;
68993;SDS011;56054;50.968;5.816;2023-07-08T08:15:57;14.07;;;7.38;;
68993;SDS011;56054;50.968;5.816;2023-07-08T08:19:04;11.05;;;6.90;;
68993;SDS011;56054;50.968;5.816;2023-07-08T08:22:11;16.85;;;6.90;;
68993;SDS011;56054;50.968;5.816;2023-07-08T08:25:19;11.65;;;6.82;;
68993;SDS011;56054;50.968;5.816;2023-07-08T08:28:27;20.50;;;7.05;;
68993;SDS011;56054;50.968;5.816;2023-07-08T08:31:34;16.30;;;6.50;;
68993;SDS011;56054;50.968;5.816;2023-07-08T08:34:41;12.43;;;6.85;;
68993;SDS011;56054;50.968;5.816;2023-07-08T08:37:48;15.15;;;6.05;;
68993;SDS011;56054;50.968;5.816;2023-07-08T08:40:55;14.40;;;6.97;;
68993;SDS011;56054;50.968;5.816;2023-07-08T08:44:03;9.82;;;6.00;;
68993;SDS011;56054;50.968;5.816;2023-07-08T08:47:19;11.05;;;5.72;;
68993;SDS011;56054;50.968;5.816;2023-07-08T08:50:43;13.73;;;6.82;;
68993;SDS011;56054;50.968;5.816;2023-07-08T08:53:56;11.27;;;6.60;;
68993;SDS011;56054;50.968;5.816;2023-07-08T09:00:16;9.40;;;5.72;;
68993;SDS011;56054;50.968;5.816;2023-07-08T09:06:44;9.65;;;5.30;;
68993;SDS011;56054;50.968;5.816;2023-07-08T09:10:01;10.63;;;6.72;;
68993;SDS011;56054;50.968;5.816;2023-07-08T09:13:33;10.90;;;5.97;;
68993;SDS011;56054;50.968;5.816;2023-07-08T09:23:25;11.20;;;6.07;;
68993;SDS011;56054;50.968;5.816;2023-07-08T09:26:37;15.63;;;6.38;;
68993;SDS011;56054;50.968;5.816;2023-07-08T09:29:45;9.57;;;5.50;;
68993;SDS011;56054;50.968;5.816;2023-07-08T09:32:53;11.48;;;6.30;;
68993;SDS011;56054;50.968;5.816;2023-07-08T09:36:00;13.85;;;5.65;;
68993;SDS011;56054;50.968;5.816;2023-07-08T09:39:09;16.33;;;6.47;;
68993;SDS011;56054;50.968;5.816;2023-07-08T09:42:18;10.95;;;6.68;;
68993;SDS011;56054;50.968;5.816;2023-07-08T09:45:27;10.15;;;6.65;;
68993;SDS011;56054;50.968;5.816;2023-07-08T09:48:35;11.23;;;5.78;;
68993;SDS011;56054;50.968;5.816;2023-07-08T09:51:44;9.60;;;5.68;;
68993;SDS011;56054;50.968;5.816;2023-07-08T09:54:52;10.35;;;6.05;;
68993;SDS011;56054;50.968;5.816;2023-07-08T09:57:59;11.68;;;6.47;;
68993;SDS011;56054;50.968;5.816;2023-07-08T10:01:17;11.18;;;5.55;;
68993;SDS011;56054;50.968;5.816;2023-07-08T10:04:29;10.10;;;5.88;;
68993;SDS011;56054;50.968;5.816;2023-07-08T10:07:36;9.52;;;5.90;;
68993;SDS011;56054;50.968;5.816;2023-07-08T10:10:45;9.98;;;5.65;;
68993;SDS011;56054;50.968;5.816;2023-07-08T10:13:56;9.63;;;5.55;;
68993;SDS011;56054;50.968;5.816;2023-07-08T10:17:10;16.38;;;6.38;;
68993;SDS011;56054;50.968;5.816;2023-07-08T10:20:21;12.38;;;5.70;;
68993;SDS011;56054;50.968;5.816;2023-07-08T10:23:34;9.20;;;5.38;;
68993;SDS011;56054;50.968;5.816;2023-07-08T10:27:03;9.23;;;5.32;;
68993;SDS011;56054;50.968;5.816;2023-07-08T10:30:38;12.10;;;5.30;;
68993;SDS011;56054;50.968;5.816;2023-07-08T10:34:00;11.27;;;5.40;;
68993;SDS011;56054;50.968;5.816;2023-07-08T10:44:55;12.88;;;5.43;;
68993;SDS011;56054;50.968;5.816;2023-07-08T10:58:13;9.57;;;4.93;;
68993;SDS011;56054;50.968;5.816;2023-07-08T11:01:56;12.15;;;5.47;;
68993;SDS011;56054;50.968;5.816;2023-07-08T11:05:33;14.07;;;6.25;;
68993;SDS011;56054;50.968;5.816;2023-07-08T11:08:45;9.35;;;5.47;;
68993;SDS011;56054;50.968;5.816;2023-07-08T11:11:59;13.75;;;6.18;;
68993;SDS011;56054;50.968;5.816;2023-07-08T11:15:25;9.43;;;5.15;;
68993;SDS011;56054;50.968;5.816;2023-07-08T11:22:04;8.77;;;4.45;;
68993;SDS011;56054;50.968;5.816;2023-07-08T11:25:17;8.38;;;4.90;;
68993;SDS011;56054;50.968;5.816;2023-07-08T11:28:26;10.75;;;5.47;;
68993;SDS011;56054;50.968;5.816;2023-07-08T11:31:33;13.25;;;5.00;;
68993;SDS011;56054;50.968;5.816;2023-07-08T11:34:41;10.70;;;5.13;;
68993;SDS011;56054;50.968;5.816;2023-07-08T11:37:52;10.27;;;4.88;;
68993;SDS011;56054;50.968;5.816;2023-07-08T11:41:03;9.20;;;5.05;;
68993;SDS011;56054;50.968;5.816;2023-07-08T11:44:18;8.57;;;4.75;;
68993;SDS011;56054;50.968;5.816;2023-07-08T11:47:32;16.63;;;5.32;;
68993;SDS011;56054;50.968;5.816;2023-07-08T11:50:41;10.48;;;6.03;;
68993;SDS011;56054;50.968;5.816;2023-07-08T11:53:50;10.25;;;5.00;;
68993;SDS011;56054;50.968;5.816;2023-07-08T11:57:06;10.40;;;5.05;;
68993;SDS011;56054;50.968;5.816;2023-07-08T12:00:23;9.63;;;5.10;;
68993;SDS011;56054;50.968;5.816;2023-07-08T12:03:39;8.80;;;5.43;;
68993;SDS011;56054;50.968;5.816;2023-07-08T12:07:03;7.63;;;4.60;;
68993;SDS011;56054;50.968;5.816;2023-07-08T12:10:16;11.55;;;5.90;;
68993;SDS011;56054;50.968;5.816;2023-07-08T12:13:25;8.98;;;5.13;;
68993;SDS011;56054;50.968;5.816;2023-07-08T12:16:32;9.93;;;5.93;;
68993;SDS011;56054;50.968;5.816;2023-07-08T12:19:39;15.35;;;4.97;;
68993;SDS011;56054;50.968;5.816;2023-07-08T12:22:50;11.82;;;4.93;;
68993;SDS011;56054;50.968;5.816;2023-07-08T12:25:57;7.65;;;4.88;;
68993;SDS011;56054;50.968;5.816;2023-07-08T12:29:04;8.50;;;5.13;;
68993;SDS011;56054;50.968;5.816;2023-07-08T12:32:11;10.20;;;4.75;;
68993;SDS011;56054;50.968;5.816;2023-07-08T12:35:29;9.07;;;5.20;;
68993;SDS011;56054;50.968;5.816;2023-07-08T12:38:40;8.23;;;4.80;;
68993;SDS011;56054;50.968;5.816;2023-07-08T12:41:48;12.80;;;5.25;;
68993;SDS011;56054;50.968;5.816;2023-07-08T12:44:56;9.20;;;5.03;;
68993;SDS011;56054;50.968;5.816;2023-07-08T12:48:03;9.05;;;5.40;;
68993;SDS011;56054;50.968;5.816;2023-07-08T12:51:11;10.45;;;5.03;;
68993;SDS011;56054;50.968;5.816;2023-07-08T12:54:28;15.13;;;6.05;;
68993;SDS011;56054;50.968;5.816;2023-07-08T12:57:35;9.25;;;5.45;;
68993;SDS011;56054;50.968;5.816;2023-07-08T13:00:43;9.90;;;5.95;;
68993;SDS011;56054;50.968;5.816;2023-07-08T13:03:51;8.55;;;5.47;;
68993;SDS011;56054;50.968;5.816;2023-07-08T13:07:00;11.32;;;5.00;;
68993;SDS011;56054;50.968;5.816;2023-07-08T13:10:07;9.80;;;5.15;;
68993;SDS011;56054;50.968;5.816;2023-07-08T13:13:26;10.75;;;4.75;;
68993;SDS011;56054;50.968;5.816;2023-07-08T13:16:36;8.52;;;5.13;;
68993;SDS011;56054;50.968;5.816;2023-07-08T13:19:43;12.57;;;4.57;;
68993;SDS011;56054;50.968;5.816;2023-07-08T13:22:53;11.10;;;5.47;;
68993;SDS011;56054;50.968;5.816;2023-07-08T13:26:24;10.90;;;5.28;;
68993;SDS011;56054;50.968;5.816;2023-07-08T13:29:38;10.70;;;4.88;;
68993;SDS011;56054;50.968;5.816;2023-07-08T13:32:48;8.13;;;4.80;;
68993;SDS011;56054;50.968;5.816;2023-07-08T13:36:00;11.07;;;5.18;;
68993;SDS011;56054;50.968;5.816;2023-07-08T13:39:09;10.02;;;4.72;;
68993;SDS011;56054;50.968;5.816;2023-07-08T13:42:22;8.73;;;4.75;;
68993;SDS011;56054;50.968;5.816;2023-07-08T13:45:30;12.13;;;5.88;;
68993;SDS011;56054;50.968;5.816;2023-07-08T13:48:42;9.98;;;5.90;;
68993;SDS011;56054;50.968;5.816;2023-07-08T13:51:50;10.10;;;5.40;;
68993;SDS011;56054;50.968;5.816;2023-07-08T13:54:59;11.45;;;4.78;;
68993;SDS011;56054;50.968;5.816;2023-07-08T13:58:13;9.18;;;4.85;;
68993;SDS011;56054;50.968;5.816;2023-07-08T14:01:23;15.60;;;5.07;;
68993;SDS011;56054;50.968;5.816;2023-07-08T14:04:33;10.38;;;4.80;;
68993;SDS011;56054;50.968;5.816;2023-07-08T14:07:41;11.82;;;5.47;;
68993;SDS011;56054;50.968;5.816;2023-07-08T14:10:48;11.68;;;5.18;;
68993;SDS011;56054;50.968;5.816;2023-07-08T14:13:55;12.68;;;4.80;;
68993;SDS011;56054;50.968;5.816;2023-07-08T14:17:02;11.25;;;5.38;;
68993;SDS011;56054;50.968;5.816;2023-07-08T14:20:13;9.48;;;5.40;;
68993;SDS011;56054;50.968;5.816;2023-07-08T14:23:22;12.82;;;5.30;;
68993;SDS011;56054;50.968;5.816;2023-07-08T14:26:29;9.90;;;5.25;;
68993;SDS011;56054;50.968;5.816;2023-07-08T14:29:36;11.65;;;5.32;;
68993;SDS011;56054;50.968;5.816;2023-07-08T14:32:43;9.63;;;5.40;;
68993;SDS011;56054;50.968;5.816;2023-07-08T14:35:51;10.38;;;4.82;;
68993;SDS011;56054;50.968;5.816;2023-07-08T14:38:58;7.93;;;4.70;;
68993;SDS011;56054;50.968;5.816;2023-07-08T14:42:07;7.78;;;4.53;;
68993;SDS011;56054;50.968;5.816;2023-07-08T14:45:26;10.32;;;5.22;;
68993;SDS011;56054;50.968;5.816;2023-07-08T14:48:34;11.23;;;5.20;;
68993;SDS011;56054;50.968;5.816;2023-07-08T14:51:41;10.45;;;5.05;;
68993;SDS011;56054;50.968;5.816;2023-07-08T14:54:48;11.35;;;5.30;;
68993;SDS011;56054;50.968;5.816;2023-07-08T14:57:55;13.27;;;5.85;;
68993;SDS011;56054;50.968;5.816;2023-07-08T15:01:07;9.73;;;6.25;;
68993;SDS011;56054;50.968;5.816;2023-07-08T15:04:19;9.98;;;5.03;;
68993;SDS011;56054;50.968;5.816;2023-07-08T15:07:26;9.55;;;4.93;;
68993;SDS011;56054;50.968;5.816;2023-07-08T15:10:33;8.55;;;5.22;;
68993;SDS011;56054;50.968;5.816;2023-07-08T15:13:41;8.65;;;5.15;;
68993;SDS011;56054;50.968;5.816;2023-07-08T15:16:50;10.10;;;5.22;;
68993;SDS011;56054;50.968;5.816;2023-07-08T15:19:57;9.57;;;5.22;;
68993;SDS011;56054;50.968;5.816;2023-07-08T15:23:04;11.45;;;5.43;;
68993;SDS011;56054;50.968;5.816;2023-07-08T15:26:12;12.95;;;5.40;;
68993;SDS011;56054;50.968;5.816;2023-07-08T15:29:21;8.25;;;5.32;;
68993;SDS011;56054;50.968;5.816;2023-07-08T15:32:29;11.45;;;6.05;;
68993;SDS011;56054;50.968;5.816;2023-07-08T15:35:36;14.85;;;5.53;;
68993;SDS011;56054;50.968;5.816;2023-07-08T15:38:43;9.75;;;5.32;;
68993;SDS011;56054;50.968;5.816;2023-07-08T15:41:50;7.95;;;5.22;;
68993;SDS011;56054;50.968;5.816;2023-07-08T15:44:58;8.10;;;5.40;;
68993;SDS011;56054;50.968;5.816;2023-07-08T15:48:10;13.63;;;5.70;;
68993;SDS011;56054;50.968;5.816;2023-07-08T15:51:18;10.60;;;5.22;;
68993;SDS011;56054;50.968;5.816;2023-07-08T15:54:25;15.55;;;5.55;;
68993;SDS011;56054;50.968;5.816;2023-07-08T15:57:33;16.00;;;5.68;;
68993;SDS011;56054;50.968;5.816;2023-07-08T16:00:43;11.25;;;5.25;;
68993;SDS011;56054;50.968;5.816;2023-07-08T16:03:50;11.23;;;5.60;;
68993;SDS011;56054;50.968;5.816;2023-07-08T16:06:57;13.45;;;5.57;;
68993;SDS011;56054;50.968;5.816;2023-07-08T16:10:04;7.95;;;4.75;;
68993;SDS011;56054;50.968;5.816;2023-07-08T16:13:11;12.45;;;5.03;;
68993;SDS011;56054;50.968;5.816;2023-07-08T16:16:18;12.27;;;5.95;;
68993;SDS011;56054;50.968;5.816;2023-07-08T16:19:25;11.07;;;5.60;;
68993;SDS011;56054;50.968;5.816;2023-07-08T16:22:32;9.45;;;4.70;;
68993;SDS011;56054;50.968;5.816;2023-07-08T16:25:41;10.05;;;4.97;;
68993;SDS011;56054;50.968;5.816;2023-07-08T16:28:53;10.85;;;5.63;;
68993;SDS011;56054;50.968;5.816;2023-07-08T16:32:00;19.48;;;6.78;;
68993;SDS011;56054;50.968;5.816;2023-07-08T16:35:08;10.73;;;5.88;;
68993;SDS011;56054;50.968;5.816;2023-07-08T16:38:20;12.07;;;5.88;;
68993;SDS011;56054;50.968;5.816;2023-07-08T16:41:29;11.70;;;5.30;;
68993;SDS011;56054;50.968;5.816;2023-07-08T16:44:41;13.77;;;6.28;;
68993;SDS011;56054;50.968;5.816;2023-07-08T16:47:49;10.70;;;5.13;;
68993;SDS011;56054;50.968;5.816;2023-07-08T16:50:57;7.97;;;5.15;;
68993;SDS011;56054;50.968;5.816;2023-07-08T16:54:14;10.10;;;5.13;;
68993;SDS011;56054;50.968;5.816;2023-07-08T16:57:22;8.75;;;5.03;;
68993;SDS011;56054;50.968;5.816;2023-07-08T17:00:29;9.38;;;5.50;;
68993;SDS011;56054;50.968;5.816;2023-07-08T17:03:36;12.10;;;5.30;;
68993;SDS011;56054;50.968;5.816;2023-07-08T17:06:43;10.95;;;5.03;;
68993;SDS011;56054;50.968;5.816;2023-07-08T17:09:50;10.75;;;5.20;;
68993;SDS011;56054;50.968;5.816;2023-07-08T17:12:57;12.10;;;5.55;;
68993;SDS011;56054;50.968;5.816;2023-07-08T17:16:04;10.25;;;4.63;;
68993;SDS011;56054;50.968;5.816;2023-07-08T17:19:16;11.05;;;4.70;;
68993;SDS011;56054;50.968;5.816;2023-07-08T17:22:23;8.65;;;5.18;;
68993;SDS011;56054;50.968;5.816;2023-07-08T17:25:30;11.57;;;5.65;;
68993;SDS011;56054;50.968;5.816;2023-07-08T17:28:37;12.27;;;4.95;;
68993;SDS011;56054;50.968;5.816;2023-07-08T17:31:44;10.85;;;5.13;;
68993;SDS011;56054;50.968;5.816;2023-07-08T17:34:51;9.75;;;4.80;;
68993;SDS011;56054;50.968;5.816;2023-07-08T17:37:58;9.10;;;5.25;;
68993;SDS011;56054;50.968;5.816;2023-07-08T17:41:07;9.00;;;4.80;;
68993;SDS011;56054;50.968;5.816;2023-07-08T17:44:16;13.07;;;5.05;;
68993;SDS011;56054;50.968;5.816;2023-07-08T17:47:23;9.45;;;5.18;;
68993;SDS011;56054;50.968;5.816;2023-07-08T17:50:30;11.98;;;5.03;;
68993;SDS011;56054;50.968;5.816;2023-07-08T17:53:37;14.93;;;5.05;;
68993;SDS011;56054;50.968;5.816;2023-07-08T17:56:45;8.85;;;5.25;;
68993;SDS011;56054;50.968;5.816;2023-07-08T17:59:53;9.65;;;4.80;;
68993;SDS011;56054;50.968;5.816;2023-07-08T18:03:00;9.02;;;4.93;;
68993;SDS011;56054;50.968;5.816;2023-07-08T18:06:07;11.07;;;5.72;;
68993;SDS011;56054;50.968;5.816;2023-07-08T18:09:14;10.25;;;5.18;;
68993;SDS011;56054;50.968;5.816;2023-07-08T18:12:21;7.80;;;4.75;;
68993;SDS011;56054;50.968;5.816;2023-07-08T18:15:29;9.18;;;5.30;;
68993;SDS011;56054;50.968;5.816;2023-07-08T18:18:39;10.65;;;5.07;;
68993;SDS011;56054;50.968;5.816;2023-07-08T18:21:46;9.05;;;5.22;;
68993;SDS011;56054;50.968;5.816;2023-07-08T18:24:54;10.18;;;6.40;;
68993;SDS011;56054;50.968;5.816;2023-07-08T18:28:01;10.93;;;5.07;;
68993;SDS011;56054;50.968;5.816;2023-07-08T18:31:10;13.77;;;5.10;;
68993;SDS011;56054;50.968;5.816;2023-07-08T18:34:17;7.00;;;4.45;;
68993;SDS011;56054;50.968;5.816;2023-07-08T18:37:24;15.68;;;5.68;;
68993;SDS011;56054;50.968;5.816;2023-07-08T18:40:32;11.55;;;5.55;;
68993;SDS011;56054;50.968;5.816;2023-07-08T18:43:41;10.50;;;4.80;;
68993;SDS011;56054;50.968;5.816;2023-07-08T18:46:48;9.50;;;4.43;;
68993;SDS011;56054;50.968;5.816;2023-07-08T18:49:55;8.18;;;4.78;;
68993;SDS011;56054;50.968;5.816;2023-07-08T18:53:02;16.65;;;5.35;;
68993;SDS011;56054;50.968;5.816;2023-07-08T18:56:13;12.43;;;5.47;;
68993;SDS011;56054;50.968;5.816;2023-07-08T18:59:22;8.32;;;5.43;;
68993;SDS011;56054;50.968;5.816;2023-07-08T19:02:30;10.45;;;5.30;;
68993;SDS011;56054;50.968;5.816;2023-07-08T19:05:40;10.68;;;5.20;;
68993;SDS011;56054;50.968;5.816;2023-07-08T19:08:47;12.98;;;6.15;;
68993;SDS011;56054;50.968;5.816;2023-07-08T19:11:54;14.98;;;6.00;;
68993;SDS011;56054;50.968;5.816;2023-07-08T19:15:02;12.70;;;5.47;;
68993;SDS011;56054;50.968;5.816;2023-07-08T19:18:10;11.60;;;5.32;;
68993;SDS011;56054;50.968;5.816;2023-07-08T19:21:24;19.88;;;5.45;;
68993;SDS011;56054;50.968;5.816;2023-07-08T19:24:32;8.88;;;4.57;;
68993;SDS011;56054;50.968;5.816;2023-07-08T19:27:39;7.22;;;5.00;;
68993;SDS011;56054;50.968;5.816;2023-07-08T19:30:53;13.68;;;5.55;;